Time;durP1;ratioP1;P1;durP2;ratioP2;P2;SDS_P1;SDS_P2;PMS_P1;PMS_P2;Temp;Humidity;BMP_temperature;BMP_pressure;BME280_temperature;BME280_humidity;BME280_pressure;Samples;Min_cycle;Max_cycle;Signal;HPM_P1;HPM_P2
2023/01/23 00:02:25;;;;;;;56.80;14.93;;;;;;;5.76;100.00;98329.88;5023596;28;20038;-79
2023/01/23 00:04:50;;;;;;;78.50;15.23;;;;;;;5.71;100.00;98329.16;5005256;28;20026;-78
2023/01/23 00:07:16;;;;;;;58.40;15.38;;;;;;;5.75;100.00;98337.91;5008126;28;20105;-80
2023/01/23 00:09:42;;;;;;;74.05;16.15;;;;;;;5.78;100.00;98333.34;5009639;28;20030;-80
2023/01/23 00:12:07;;;;;;;57.90;13.73;;;;;;;5.74;100.00;98337.03;4999862;28;20068;-81
2023/01/23 00:14:33;;;;;;;55.50;14.48;;;;;;;5.70;100.00;98334.50;5006165;28;20100;-80
2023/01/23 00:16:59;;;;;;;61.65;13.60;;;;;;;5.62;100.00;98326.78;5007243;28;20018;-80
2023/01/23 00:19:24;;;;;;;44.05;15.15;;;;;;;5.56;100.00;98321.66;5006086;28;20029;-80
2023/01/23 00:21:50;;;;;;;50.15;13.52;;;;;;;5.60;100.00;98331.25;5020654;28;20029;-80
2023/01/23 00:24:15;;;;;;;91.82;15.40;;;;;;;5.59;100.00;98321.56;5029547;28;20025;-80
2023/01/23 00:26:41;;;;;;;58.00;15.38;;;;;;;5.67;100.00;98331.94;5031386;28;20029;-80
2023/01/23 00:29:07;;;;;;;57.00;13.00;;;;;;;5.81;100.00;98338.59;5032430;28;20033;-79
2023/01/23 00:31:36;;;;;;;60.85;12.95;;;;;;;5.70;100.00;98338.03;5009827;28;20026;-80
2023/01/23 00:34:04;;;;;;;67.05;13.85;;;;;;;5.77;100.00;98350.22;5026425;28;20030;-79
2023/01/23 00:36:36;;;;;;;87.57;14.13;;;;;;;5.82;100.00;98350.94;5005959;28;20033;-80
2023/01/23 00:39:03;;;;;;;80.97;13.73;;;;;;;5.82;100.00;98360.66;5007387;28;20027;-79
2023/01/23 00:41:29;;;;;;;61.08;13.57;;;;;;;5.80;100.00;98351.91;5000282;28;20033;-81
2023/01/23 00:43:54;;;;;;;47.30;14.52;;;;;;;5.79;100.00;98355.44;4994584;28;20576;-80
2023/01/23 00:46:20;;;;;;;65.53;16.10;;;;;;;5.66;100.00;98344.34;5011923;28;20037;-81
2023/01/23 00:51:30;;;;;;;81.13;16.50;;;;;;;5.74;100.00;98358.25;5017391;28;20063;-80
2023/01/23 00:53:56;;;;;;;80.82;16.02;;;;;;;5.80;100.00;98374.00;5005567;28;20116;-80
2023/01/23 00:56:22;;;;;;;79.43;15.80;;;;;;;5.85;100.00;98366.78;5005694;28;20448;-80
2023/01/23 00:58:47;;;;;;;68.32;16.33;;;;;;;5.86;100.00;98368.53;5004177;28;20577;-80
2023/01/23 01:01:14;;;;;;;66.13;15.07;;;;;;;5.85;100.00;98357.91;4993493;28;20033;-81
2023/01/23 01:03:40;;;;;;;60.03;14.90;;;;;;;5.89;100.00;98362.28;5005366;28;20096;-81
2023/01/23 01:06:06;;;;;;;60.42;15.70;;;;;;;5.97;100.00;98378.81;4981182;28;20025;-80
2023/01/23 01:08:31;;;;;;;58.80;15.90;;;;;;;5.85;100.00;98374.75;5010961;28;20029;-80
2023/01/23 01:10:57;;;;;;;64.22;14.65;;;;;;;5.78;100.00;98381.13;5016475;28;20026;-79
2023/01/23 01:13:23;;;;;;;69.53;18.15;;;;;;;5.71;100.00;98384.91;4997140;28;20513;-80
2023/01/23 01:15:51;;;;;;;55.38;16.52;;;;;;;5.87;100.00;98393.31;5016629;28;20460;-81
2023/01/23 01:18:17;;;;;;;67.03;16.65;;;;;;;5.93;100.00;98404.63;5010659;28;20487;-79
2023/01/23 01:20:43;;;;;;;82.57;17.15;;;;;;;5.92;100.00;98397.56;4986000;28;20025;-81
2023/01/23 01:23:09;;;;;;;65.40;16.90;;;;;;;5.99;100.00;98406.22;4999380;28;20084;-81
2023/01/23 01:25:34;;;;;;;37.65;13.95;;;;;;;5.79;100.00;98387.31;5003501;28;20465;-81
2023/01/23 01:28:00;;;;;;;39.42;12.88;;;;;;;5.80;100.00;98402.31;5016270;28;20116;-80
2023/01/23 01:30:26;;;;;;;35.45;13.30;;;;;;;5.83;100.00;98404.91;5007721;28;20089;-80
2023/01/23 01:32:52;;;;;;;34.10;13.10;;;;;;;5.84;100.00;98396.91;5007955;28;20025;-81
2023/01/23 01:35:18;;;;;;;34.03;12.88;;;;;;;5.82;100.00;98392.53;4993823;28;20017;-80
2023/01/23 01:37:44;;;;;;;28.88;12.13;;;;;;;5.83;100.00;98405.78;5015961;28;20025;-80
2023/01/23 01:40:18;;;;;;;30.05;11.98;;;;;;;5.72;100.00;98394.56;4996878;28;20099;-81
2023/01/23 01:42:48;;;;;;;37.42;12.38;;;;;;;5.64;100.00;98393.94;5010907;28;20060;-81
2023/01/23 01:45:51;;;;;;;35.97;12.25;;;;;;;5.78;100.00;98402.34;4995867;28;20030;-81
2023/01/23 01:48:17;;;;;;;;;;;;;;;5.83;100.00;98399.59;5005062;28;20092;-81
2023/01/23 01:50:43;;;;;;;35.67;11.30;;;;;;;5.67;100.00;98388.53;5011822;28;20368;-80
2023/01/23 01:53:09;;;;;;;27.17;11.48;;;;;;;5.65;100.00;98408.97;5003361;28;20041;-80
2023/01/23 01:55:35;;;;;;;27.55;10.77;;;;;;;5.63;100.00;98402.81;4990882;28;20037;-80
2023/01/23 01:58:01;;;;;;;22.38;9.95;;;;;;;5.57;100.00;98395.03;5015131;28;20041;-79
2023/01/23 02:00:26;;;;;;;22.88;10.45;;;;;;;5.49;100.00;98399.69;5015032;28;20030;-78
2023/01/23 02:02:57;;;;;;;24.17;11.05;;;;;;;5.56;100.00;98406.56;4998686;28;20474;-80
2023/01/23 02:05:24;;;;;;;31.38;11.40;;;;;;;5.76;100.00;98417.47;5015259;28;20026;-80
2023/01/23 02:08:04;;;;;;;27.95;12.02;;;;;;;5.77;100.00;98405.94;4993877;28;20037;-80
2023/01/23 02:10:31;;;;;;;30.42;12.27;;;;;;;5.84;100.00;98406.66;4996725;28;20033;-81
2023/01/23 02:13:19;;;;;;;45.80;12.90;;;;;;;5.81;100.00;98412.91;4997342;28;20032;-81
2023/01/23 02:15:45;;;;;;;31.45;11.57;;;;;;;5.88;100.00;98414.50;5013383;28;20502;-81
2023/01/23 02:18:11;;;;;;;43.72;12.27;;;;;;;5.84;100.00;98412.84;5011340;28;20048;-81
2023/01/23 02:20:37;;;;;;;36.90;11.13;;;;;;;5.80;100.00;98419.13;5014650;28;20143;-81
2023/01/23 02:23:15;;;;;;;40.65;10.57;;;;;;;5.73;100.00;98412.25;5015269;28;20051;-81
2023/01/23 02:25:44;;;;;;;41.10;10.55;;;;;;;5.81;100.00;98422.66;5014685;28;20025;-81
2023/01/23 02:28:10;;;;;;;44.40;13.55;;;;;;;5.82;100.00;98419.94;5014662;28;20519;-81
2023/01/23 02:30:38;;;;;;;45.35;11.52;;;;;;;5.69;100.00;98418.56;4995813;28;20408;-82
2023/01/23 02:33:31;;;;;;;41.15;11.75;;;;;;;5.65;100.00;98426.66;4994671;28;20583;-81
2023/01/23 02:35:57;;;;;;;;;;;;;;;5.67;100.00;98422.16;5013305;28;20123;-80
2023/01/23 02:38:25;;;;;;;38.92;11.00;;;;;;;5.61;100.00;98409.06;4989991;28;19977;-80
2023/01/23 02:40:52;;;;;;;54.13;11.40;;;;;;;5.62;100.00;98427.63;5014375;28;20036;-81
2023/01/23 02:43:20;;;;;;;43.35;11.80;;;;;;;5.72;100.00;98431.72;4998853;28;20094;-80
2023/01/23 02:45:46;;;;;;;64.13;14.63;;;;;;;5.74;100.00;98429.94;5013231;28;20025;-80
2023/01/23 02:48:12;;;;;;;36.90;12.38;;;;;;;5.84;100.00;98431.41;4998477;28;20040;-80
2023/01/23 02:50:37;;;;;;;40.58;12.02;;;;;;;5.82;100.00;98425.25;4994564;28;20033;-79
2023/01/23 02:53:04;;;;;;;48.65;11.63;;;;;;;5.79;100.00;98435.97;5010855;28;20037;-80
2023/01/23 02:55:31;;;;;;;46.60;12.18;;;;;;;5.82;100.00;98443.84;5014413;28;20029;-80
2023/01/23 03:00:14;;;;;;;38.95;12.82;;;;;;;5.90;100.00;98441.88;5014756;28;20378;-80
2023/01/23 03:00:43;;;;;;;39.47;12.15;;;;;;;5.70;100.00;98444.19;5017131;28;20033;-79
2023/01/23 03:03:09;;;;;;;40.80;13.07;;;;;;;5.80;100.00;98442.16;4998117;28;20026;-80
2023/01/23 03:05:34;;;;;;;33.15;12.73;;;;;;;5.86;100.00;98442.00;4997691;28;20099;-80
2023/01/23 03:08:00;;;;;;;39.38;14.05;;;;;;;5.95;100.00;98447.03;4997963;28;20029;-80
2023/01/23 03:10:27;;;;;;;36.55;12.93;;;;;;;5.82;100.00;98421.72;4997986;28;20029;-80
2023/01/23 03:12:53;;;;;;;27.27;10.30;;;;;;;5.82;100.00;98425.25;4997839;28;20021;-80
2023/01/23 03:15:18;;;;;;;22.67;10.60;;;;;;;5.66;100.00;98410.69;4997978;28;20524;-80
2023/01/23 03:17:44;;;;;;;18.40;9.05;;;;;;;5.80;100.00;98411.16;5014158;28;20427;-80
2023/01/23 03:20:10;;;;;;;23.65;10.23;;;;;;;5.76;100.00;98398.88;5013736;28;20017;-80
2023/01/23 03:22:35;;;;;;;27.27;12.18;;;;;;;5.66;100.00;98397.41;4996990;28;20026;-79
2023/01/23 03:25:01;;;;;;;20.02;9.93;;;;;;;5.74;100.00;98411.34;4997632;28;20044;-80
2023/01/23 03:27:27;;;;;;;23.05;9.80;;;;;;;5.70;100.00;98399.06;4997158;28;20087;-80
2023/01/23 03:32:37;;;;;;;18.50;9.95;;;;;;;5.79;100.00;98416.50;5016099;28;20032;-80
2023/01/23 03:35:04;;;;;;;21.85;10.52;;;;;;;5.69;100.00;98407.09;5014070;28;20020;-80
2023/01/23 03:37:30;;;;;;;22.60;10.35;;;;;;;5.54;100.00;98403.06;5013588;28;20068;-80
2023/01/23 03:42:39;;;;;;;22.25;9.82;;;;;;;5.80;100.00;98434.19;5031162;28;20064;-80
2023/01/23 03:45:05;;;;;;;25.92;10.07;;;;;;;5.83;100.00;98415.50;5013618;28;20469;-80
2023/01/23 03:47:31;;;;;;;22.92;10.57;;;;;;;5.86;100.00;98421.63;5013589;28;20418;-80
2023/01/23 03:49:57;;;;;;;21.92;10.82;;;;;;;5.79;100.00;98409.41;5013294;28;20107;-80
2023/01/23 03:52:23;;;;;;;23.30;11.10;;;;;;;5.89;100.00;98410.06;5010311;28;20038;-79
2023/01/23 03:54:48;;;;;;;28.92;12.75;;;;;;;5.82;100.00;98408.44;5009742;28;20021;-80
2023/01/23 03:59:58;;;;;;;43.58;13.52;;;;;;;5.76;100.00;98414.81;5031233;28;20400;-80
2023/01/23 04:02:24;;;;;;;37.53;13.38;;;;;;;5.86;100.00;98418.13;4993546;28;20022;-80
2023/01/23 04:04:49;;;;;;;35.35;13.25;;;;;;;5.87;100.00;98423.41;4996965;28;20025;-80
2023/01/23 04:07:15;;;;;;;33.95;11.52;;;;;;;5.88;100.00;98430.41;4997049;28;20048;-79
2023/01/23 04:09:40;;;;;;;27.75;11.07;;;;;;;5.93;100.00;98431.19;5030538;28;20112;-80
2023/01/23 04:12:06;;;;;;;44.10;13.30;;;;;;;5.85;100.00;98427.84;4996577;28;20477;-80
2023/01/23 04:14:36;;;;;;;31.50;12.15;;;;;;;5.84;100.00;98427.88;4996593;28;20406;-80
2023/01/23 04:17:05;;;;;;;34.55;11.40;;;;;;;5.82;100.00;98425.25;5012521;28;20511;-80
2023/01/23 04:19:30;;;;;;;42.90;11.80;;;;;;;5.83;100.00;98429.66;5013099;28;20029;-81
2023/01/23 04:21:56;;;;;;;34.70;11.73;;;;;;;5.90;100.00;98433.94;4996444;28;20029;-81
2023/01/23 04:24:21;;;;;;;30.45;10.68;;;;;;;5.82;100.00;98425.25;4996574;28;20029;-78
2023/01/23 04:26:47;;;;;;;23.27;9.52;;;;;;;5.87;100.00;98436.66;5010119;28;20476;-78
2023/01/23 04:29:15;;;;;;;29.00;10.70;;;;;;;5.78;100.00;98420.09;5010572;28;20037;-78
2023/01/23 04:31:41;;;;;;;24.30;10.15;;;;;;;5.78;100.00;98434.22;5013929;28;20030;-78
2023/01/23 04:34:07;;;;;;;31.63;11.73;;;;;;;5.83;100.00;98442.94;5013015;28;20033;-77
2023/01/23 04:36:33;;;;;;;45.50;15.10;;;;;;;5.82;100.00;98427.91;5000778;28;20566;-78
2023/01/23 04:38:58;;;;;;;42.97;15.93;;;;;;;5.91;100.00;98438.28;5017360;28;20033;-77
2023/01/23 04:41:26;;;;;;;52.13;18.35;;;;;;;5.95;100.00;98442.63;4997436;28;20034;-78
2023/01/23 04:43:52;;;;;;;43.08;13.63;;;;;;;5.95;100.00;98441.75;4997184;28;20030;-78
2023/01/23 04:46:17;;;;;;;38.40;13.95;;;;;;;5.88;100.00;98434.84;5013826;28;20092;-78
2023/01/23 04:48:43;;;;;;;31.63;13.15;;;;;;;5.95;100.00;98439.97;5000362;28;20110;-78
2023/01/23 04:51:09;;;;;;;46.50;15.65;;;;;;;5.87;100.00;98436.66;5016866;28;20042;-78
2023/01/23 04:53:34;;;;;;;32.13;13.48;;;;;;;5.92;100.00;98448.00;5002418;28;20496;-78
2023/01/23 04:56:01;;;;;;;30.63;13.30;;;;;;;5.92;100.00;98463.94;4990600;28;20033;-77
2023/01/23 04:58:26;;;;;;;37.70;14.05;;;;;;;5.96;100.00;98465.59;5010738;28;20417;-78
2023/01/23 05:00:54;;;;;;;30.40;13.02;;;;;;;5.94;100.00;98459.44;5013559;28;20040;-78
2023/01/23 05:03:19;;;;;;;28.10;12.50;;;;;;;5.76;100.00;98454.63;5000068;28;20126;-78
2023/01/23 05:05:46;;;;;;;31.65;13.23;;;;;;;5.87;100.00;98460.56;5005073;28;20104;-78
2023/01/23 05:08:12;;;;;;;49.90;17.65;;;;;;;5.87;100.00;98467.66;4997101;28;20041;-78
2023/01/23 05:10:38;;;;;;;41.85;15.30;;;;;;;5.94;100.00;98472.72;4997059;28;20030;-78
2023/01/23 05:13:14;;;;;;;;;;;;;;;;;;;;;
2023/01/23 05:15:48;;;;;;;36.13;13.10;;;;;;;5.77;100.00;98464.34;4992040;28;20036;-78
2023/01/23 05:18:30;;;;;;;32.88;12.98;;;;;;;5.82;100.00;98490.75;5014863;28;20036;-79
2023/01/23 05:20:55;;;;;;;37.53;13.07;;;;;;;5.83;100.00;98495.16;5002318;28;20042;-78
2023/01/23 05:23:21;;;;;;;40.15;14.48;;;;;;;5.83;100.00;98481.88;4986834;28;20409;-78
2023/01/23 05:25:46;;;;;;;38.38;15.20;;;;;;;5.88;100.00;98494.13;4983403;28;20033;-78
2023/01/23 05:28:12;;;;;;;41.95;13.75;;;;;;;5.73;100.00;98491.88;4986042;28;20454;-78
2023/01/23 05:30:38;;;;;;;41.35;13.10;;;;;;;5.80;100.00;98504.09;5005850;28;20101;-78
2023/01/23 05:33:05;;;;;;;39.38;14.10;;;;;;;5.88;100.00;98515.38;5004467;28;20065;-81
2023/01/23 05:35:33;;;;;;;43.33;13.20;;;;;;;5.88;100.00;98509.19;5003229;28;20405;-78
2023/01/23 05:37:59;;;;;;;38.08;14.55;;;;;;;5.75;100.00;98508.63;4982767;28;20497;-77
2023/01/23 05:40:25;;;;;;;49.80;15.32;;;;;;;5.75;100.00;98513.94;5005071;28;20034;-78
2023/01/23 05:42:50;;;;;;;52.60;14.95;;;;;;;5.70;100.00;98509.66;4980073;28;20095;-78
2023/01/23 05:45:16;;;;;;;42.53;14.63;;;;;;;5.75;100.00;98526.34;5016054;28;20032;-77
2023/01/23 05:47:42;;;;;;;42.58;14.50;;;;;;;5.77;100.00;98525.41;4983225;28;20120;-78
2023/01/23 05:50:12;;;;;;;45.38;15.77;;;;;;;5.77;100.00;98519.22;5003913;28;20025;-76
2023/01/23 05:52:38;;;;;;;48.13;16.05;;;;;;;5.71;100.00;98506.13;5009234;28;20405;-78
2023/01/23 05:55:04;;;;;;;42.13;14.93;;;;;;;5.69;100.00;98522.06;5015368;28;20025;-76
2023/01/23 05:57:30;;;;;;;40.30;12.73;;;;;;;5.69;100.00;98519.41;5015750;28;20021;-78
2023/01/23 05:59:55;;;;;;;40.97;14.60;;;;;;;5.67;100.00;98542.47;5033044;28;20056;-81
2023/01/23 06:02:21;;;;;;;43.25;13.75;;;;;;;5.76;100.00;98541.34;5032843;28;20033;-82
2023/01/23 06:04:47;;;;;;;44.38;14.73;;;;;;;5.83;100.00;98535.84;4999168;28;20025;-82
2023/01/23 06:07:14;;;;;;;40.58;14.70;;;;;;;5.80;100.00;98543.91;4998909;28;20022;-81
2023/01/23 06:09:40;;;;;;;46.00;14.05;;;;;;;5.77;100.00;98549.28;4999060;28;20481;-80
2023/01/23 06:12:06;;;;;;;43.60;13.25;;;;;;;5.88;100.00;98557.84;4998341;28;20029;-80
2023/01/23 06:14:32;;;;;;;33.13;13.10;;;;;;;5.90;100.00;98548.09;5015046;28;20616;-81
2023/01/23 06:16:57;;;;;;;37.45;13.75;;;;;;;5.87;100.00;98555.25;4998376;28;20116;-82
2023/01/23 06:19:23;;;;;;;39.45;14.15;;;;;;;5.95;100.00;98555.91;4998428;28;20085;-82
2023/01/23 06:21:48;;;;;;;46.72;14.23;;;;;;;6.02;100.00;98556.63;4998550;28;20029;-82
2023/01/23 06:24:14;;;;;;;46.85;15.18;;;;;;;6.02;100.00;98553.97;4998247;28;20095;-80
2023/01/23 06:26:39;;;;;;;42.75;13.50;;;;;;;6.15;100.00;98574.84;5015120;28;20044;-82
2023/01/23 06:29:05;;;;;;;39.17;14.50;;;;;;;6.04;100.00;98555.66;4998887;28;20037;-82
2023/01/23 06:31:31;;;;;;;36.75;13.82;;;;;;;6.22;100.00;98567.53;4998228;28;20029;-82
2023/01/23 06:33:57;;;;;;;38.38;16.13;;;;;;;6.25;100.00;98570.13;4998400;28;20034;-82
2023/01/23 06:36:23;;;;;;;43.03;16.17;;;;;;;6.18;100.00;98558.81;4998339;28;20029;-81
2023/01/23 06:38:49;;;;;;;43.72;16.05;;;;;;;6.36;100.00;98566.25;4998182;28;20536;-82
2023/01/23 06:41:15;;;;;;;77.00;33.40;;;;;;;6.42;100.00;98562.53;5017251;28;20126;-82
2023/01/23 06:43:40;;;;;;;48.70;19.70;;;;;;;6.42;100.00;98550.13;5014464;28;20036;-82
2023/01/23 06:46:10;;;;;;;45.05;16.90;;;;;;;6.42;100.00;98542.16;4994960;28;20413;-82
2023/01/23 06:48:36;;;;;;;57.88;22.45;;;;;;;6.39;100.00;98549.34;4997668;28;20033;-82
2023/01/23 06:51:02;;;;;;;47.65;18.52;;;;;;;6.48;100.00;98568.56;5014482;28;20103;-83
2023/01/23 06:53:27;;;;;;;81.35;28.13;;;;;;;6.52;100.00;98551.59;4997665;28;20045;-82
2023/01/23 06:55:57;;;;;;;99.70;35.38;;;;;;;6.57;100.00;98530.19;4997441;28;20037;-81
2023/01/23 06:58:23;;;;;;;96.53;39.55;;;;;;;6.66;100.00;98540.56;5013733;28;20025;-79
2023/01/23 07:00:49;;;;;;;65.70;27.42;;;;;;;6.73;100.00;98533.25;5013966;28;20041;-82
2023/01/23 07:03:14;;;;;;;93.43;44.83;;;;;;;6.69;100.00;98542.25;5032010;28;20456;-83
2023/01/23 07:05:42;;;;;;;53.03;22.38;;;;;;;6.61;100.00;98531.84;4998257;28;20033;-83
2023/01/23 07:08:08;;;;;;;69.32;26.08;;;;;;;6.65;100.00;98533.47;5015151;28;20103;-83
2023/01/23 07:10:36;;;;;;;64.80;26.48;;;;;;;6.66;100.00;98523.72;4996402;28;20041;-83
2023/01/23 07:13:03;;;;;;;46.67;21.58;;;;;;;6.71;100.00;98535.94;4998141;28;20089;-84
2023/01/23 07:15:29;;;;;;;47.80;19.55;;;;;;;6.67;100.00;98522.81;4997618;28;20065;-82
2023/01/23 07:17:55;;;;;;;46.58;19.60;;;;;;;6.70;100.00;98523.59;4997662;28;20531;-82
2023/01/23 07:20:20;;;;;;;59.38;27.13;;;;;;;6.62;100.00;98527.38;5014259;28;20113;-83
2023/01/23 07:22:46;;;;;;;47.67;20.48;;;;;;;6.63;100.00;98522.03;4997718;28;20420;-84
2023/01/23 07:25:11;;;;;;;50.90;19.27;;;;;;;6.59;100.00;98519.50;5013744;28;20477;-83
2023/01/23 07:27:37;;;;;;;49.80;19.63;;;;;;;6.61;100.00;98520.34;4997182;28;20107;-82
2023/01/23 07:30:03;;;;;;;55.95;20.95;;;;;;;6.63;100.00;98519.38;4997639;28;20477;-83
2023/01/23 07:32:28;;;;;;;69.60;27.50;;;;;;;6.72;100.00;98537.69;5000300;28;20493;-83
2023/01/23 07:34:54;;;;;;;101.50;44.92;;;;;;;6.85;100.00;98547.03;5019004;28;20033;-81
2023/01/23 07:37:19;;;;;;;206.68;86.15;;;;;;;6.97;100.00;98541.34;5017838;28;20021;-80
2023/01/23 07:39:45;;;;;;;60.10;23.58;;;;;;;6.96;100.00;98520.97;5009553;28;20034;-82
2023/01/23 07:42:10;;;;;;;64.68;28.02;;;;;;;7.09;100.00;98524.13;5007592;28;20108;-82
2023/01/23 07:44:36;;;;;;;52.63;23.67;;;;;;;7.21;100.00;98517.50;5001065;28;20021;-82
2023/01/23 07:47:02;;;;;;;50.72;23.02;;;;;;;7.18;100.00;98501.66;4999183;28;20092;-80
2023/01/23 07:49:27;;;;;;;59.03;24.15;;;;;;;7.07;100.00;98502.03;4998248;28;20472;-80
2023/01/23 07:51:53;;;;;;;54.75;23.20;;;;;;;7.20;100.00;98506.00;5019444;28;20045;-80
2023/01/23 07:54:18;;;;;;;50.97;22.30;;;;;;;7.33;100.00;98509.13;5008862;28;20560;-80
2023/01/23 07:56:44;;;;;;;53.63;25.52;;;;;;;7.28;100.00;98501.31;5007466;28;20030;-82
2023/01/23 07:59:11;;;;;;;57.25;25.73;;;;;;;7.24;100.00;98504.09;5001356;28;20036;-81
2023/01/23 08:01:37;;;;;;;63.40;27.35;;;;;;;7.32;100.00;98492.28;5020245;28;20025;-80
2023/01/23 08:04:02;;;;;;;84.32;36.70;;;;;;;7.18;100.00;98477.72;5026924;28;20014;-81
2023/01/23 08:06:28;;;;;;;85.40;33.80;;;;;;;7.22;100.00;98493.53;4997237;28;20382;-80
2023/01/23 08:08:54;;;;;;;71.63;27.88;;;;;;;7.05;100.00;98493.19;4999815;28;20495;-80
2023/01/23 08:11:19;;;;;;;72.45;27.13;;;;;;;6.90;100.00;98494.56;5000927;28;20025;-79
2023/01/23 08:13:48;;;;;;;79.05;28.02;;;;;;;7.02;100.00;98514.59;5000403;28;20032;-79
2023/01/23 08:16:14;;;;;;;59.95;26.55;;;;;;;6.83;100.00;98508.97;5017121;28;20496;-78
2023/01/23 08:18:39;;;;;;;62.30;27.17;;;;;;;6.86;100.00;98519.50;5017351;28;20057;-79
2023/01/23 08:21:05;;;;;;;64.80;25.88;;;;;;;6.78;100.00;98515.38;5001046;28;20056;-80
2023/01/23 08:23:32;;;;;;;53.38;22.02;;;;;;;6.90;100.00;98514.97;5000846;28;20029;-79
2023/01/23 08:26:00;;;;;;;51.25;22.85;;;;;;;6.79;100.00;98510.00;5000542;28;20112;-80
2023/01/23 08:28:25;;;;;;;50.67;22.35;;;;;;;6.88;100.00;98509.72;5000681;28;20032;-79
2023/01/23 08:30:52;;;;;;;47.85;19.70;;;;;;;7.10;100.00;98515.22;5000839;28;20029;-80
2023/01/23 08:33:18;;;;;;;58.78;24.45;;;;;;;7.31;100.00;98529.59;5016792;28;20056;-80
2023/01/23 08:35:49;;;;;;;63.22;27.73;;;;;;;7.53;100.00;98509.34;4999529;28;20116;-80
2023/01/23 08:38:14;;;;;;;60.08;25.40;;;;;;;7.65;100.00;98495.59;5016486;28;20028;-80
2023/01/23 08:40:40;;;;;;;43.78;19.00;;;;;;;7.49;100.00;98483.72;4999827;28;20041;-79
2023/01/23 08:43:05;;;;;;;40.00;19.58;;;;;;;7.57;100.00;98471.88;5016367;28;20053;-79
2023/01/23 08:45:31;;;;;;;41.03;18.63;;;;;;;7.52;100.00;98468.53;5000117;28;20040;-79
2023/01/23 08:47:57;;;;;;;47.03;23.88;;;;;;;7.81;100.00;98471.94;5016591;28;20025;-78
2023/01/23 08:50:22;;;;;;;47.85;21.23;;;;;;;7.88;100.00;98457.47;5016802;28;20025;-78
2023/01/23 08:52:48;;;;;;;50.33;21.15;;;;;;;8.12;100.00;98464.56;5000876;28;20064;-81
2023/01/23 08:55:14;;;;;;;79.03;36.38;;;;;;;8.33;100.00;98458.47;4996806;28;20036;-79
2023/01/23 08:57:40;;;;;;;73.10;34.05;;;;;;;8.38;100.00;98443.16;5014982;28;20025;-81
2023/01/23 09:00:06;;;;;;;78.88;36.72;;;;;;;8.57;100.00;98421.97;5000114;28;20108;-80
2023/01/23 09:02:31;;;;;;;47.13;22.10;;;;;;;8.59;100.00;98417.44;5016371;28;20476;-81
2023/01/23 09:04:57;;;;;;;56.70;26.48;;;;;;;8.63;100.00;98413.72;5016344;28;20032;-81
2023/01/23 09:07:22;;;;;;;50.03;24.25;;;;;;;8.67;100.00;98407.34;5016427;28;20025;-80
2023/01/23 09:09:48;;;;;;;49.40;23.92;;;;;;;8.54;100.00;98398.97;4999403;28;20037;-81
2023/01/23 09:12:14;;;;;;;51.88;24.63;;;;;;;8.53;100.00;98394.56;5015968;28;20025;-80
2023/01/23 09:14:39;;;;;;;56.40;25.08;;;;;;;8.50;100.00;98386.69;5016025;28;20052;-81
2023/01/23 09:17:05;;;;;;;53.30;25.20;;;;;;;8.52;100.00;98399.97;4999498;28;20132;-80
2023/01/23 09:19:31;;;;;;;54.60;25.30;;;;;;;8.37;100.00;98396.09;4993371;28;20112;-79
2023/01/23 09:21:57;;;;;;;61.17;25.92;;;;;;;8.28;100.00;98390.25;4997327;28;20498;-80
2023/01/23 09:24:22;;;;;;;58.28;26.80;;;;;;;8.24;100.00;98388.63;5015839;28;20175;-80
2023/01/23 09:26:48;;;;;;;54.92;26.30;;;;;;;8.14;100.00;98409.41;4999130;28;20036;-81
2023/01/23 09:29:14;;;;;;;54.30;24.30;;;;;;;7.82;100.00;98365.34;5016080;28;20025;-80
2023/01/23 09:31:39;;;;;;;49.85;23.83;;;;;;;7.86;100.00;98380.28;4997978;28;20032;-80
2023/01/23 09:34:06;;;;;;;53.15;25.63;;;;;;;7.87;100.00;98387.38;4999148;28;20045;-81
2023/01/23 09:36:33;;;;;;;62.88;27.17;;;;;;;8.13;100.00;98371.25;5003392;28;20033;-81
2023/01/23 09:38:59;;;;;;;57.20;26.35;;;;;;;8.41;100.00;98380.84;4999333;28;20029;-80
2023/01/23 09:41:27;;;;;;;53.42;26.08;;;;;;;8.51;100.00;98376.88;5015883;28;20052;-80
2023/01/23 09:43:57;;;;;;;58.05;27.98;;;;;;;8.74;100.00;98373.28;4999206;28;20556;-80
2023/01/23 09:46:35;;;;;;;61.17;28.50;;;;;;;8.77;100.00;98368.66;4999099;28;20504;-80
2023/01/23 09:49:24;;;;;;;54.67;27.60;;;;;;;8.90;100.00;98367.22;4999031;28;20032;-80
2023/01/23 09:52:00;;;;;;;52.70;27.13;;;;;;;9.01;100.00;98364.97;4998836;28;20061;-81
2023/01/23 09:54:45;;;;;;;56.67;26.90;;;;;;;9.01;100.00;98346.28;4990029;28;20026;-80
2023/01/23 09:57:17;;;;;;;84.30;42.92;;;;;;;9.17;100.00;98344.69;4998209;28;20025;-81
2023/01/23 09:59:48;;;;;;;78.53;36.13;;;;;;;9.15;100.00;98333.25;5015422;28;20030;-81
2023/01/23 10:02:18;;;;;;;68.95;32.97;;;;;;;9.19;100.00;98334.84;4999155;28;20030;-80
2023/01/23 10:04:49;;;;;;;65.72;31.40;;;;;;;8.89;100.00;98304.13;5031910;28;20128;-80
2023/01/23 10:07:48;;;;;;;57.88;27.42;;;;;;;9.08;100.00;98326.41;4998788;28;20052;-80
2023/01/23 10:10:37;;;;;;;54.20;23.92;;;;;;;9.15;100.00;98337.69;5029235;28;20037;-82
2023/01/23 10:13:35;;;;;;;34.22;17.52;;;;;;;8.50;100.00;98329.81;5014825;28;20035;-81
2023/01/23 10:16:17;;;;;;;40.70;18.98;;;;;;;8.54;100.00;98347.44;4998640;28;20033;-82
2023/01/23 10:18:42;;;;;;;45.97;21.27;;;;;;;8.67;100.00;98351.34;5014851;28;20025;-82
2023/01/23 10:21:20;;;;;;;24.98;13.90;;;;;;;8.91;100.00;98336.97;5015142;28;20473;-81
2023/01/23 10:24:02;;;;;;;24.55;12.40;;;;;;;8.94;100.00;98328.84;4998763;28;20463;-81
2023/01/23 10:26:35;;;;;;;;;;;;;;;9.17;100.00;98319.81;5015494;28;20017;-81
2023/01/23 10:29:13;;;;;;;20.20;10.40;;;;;;;9.11;100.00;98304.94;5015123;28;19920;-81
2023/01/23 10:32:01;;;;;;;38.97;21.60;;;;;;;9.06;100.00;98316.75;5031768;28;20041;-82
2023/01/23 10:34:54;;;;;;;54.58;27.38;;;;;;;8.94;100.00;98299.47;5015142;28;20037;-81
2023/01/23 10:37:40;;;;;;;49.17;27.20;;;;;;;8.71;100.00;98303.13;5014384;28;20040;-80
2023/01/23 10:41:12;;;;;;;26.48;13.80;;;;;;;8.75;100.00;98300.31;4995352;28;20024;-80
2023/01/23 10:43:03;;;;;;;23.45;13.55;;;;;;;8.80;100.00;98306.34;4998383;28;20524;-81
2023/01/23 10:45:29;;;;;;;30.60;15.85;;;;;;;8.63;100.00;98285.72;4998377;28;20024;-81
2023/01/23 10:47:57;;;;;;;27.83;14.13;;;;;;;8.75;100.00;98292.31;5015158;28;20025;-81
2023/01/23 10:50:35;;;;;;;30.75;16.95;;;;;;;8.98;100.00;98303.72;5015255;28;20030;-81
2023/01/23 10:53:10;;;;;;;24.52;13.23;;;;;;;8.87;100.00;98273.13;4998020;28;20045;-80
2023/01/23 10:55:44;;;;;;;160.82;68.70;;;;;;;8.86;100.00;98285.59;5014391;28;20041;-80
2023/01/23 10:58:25;;;;;;;63.45;32.38;;;;;;;8.92;100.00;98281.81;4998296;28;20072;-80
2023/01/23 11:00:51;;;;;;;20.88;12.27;;;;;;;8.99;100.00;98281.47;5031970;28;20026;-81
2023/01/23 11:03:25;;;;;;;34.30;17.85;;;;;;;9.05;100.00;98278.53;4994942;28;20109;-81
2023/01/23 11:05:55;;;;;;;20.70;11.77;;;;;;;9.02;100.00;98278.66;4998048;28;20029;-82
2023/01/23 11:08:26;;;;;;;44.35;24.83;;;;;;;9.13;100.00;98270.19;4998281;28;20489;-82
2023/01/23 11:10:53;;;;;;;18.70;11.18;;;;;;;8.96;100.00;98248.69;5001793;28;20180;-79
2023/01/23 11:13:27;;;;;;;23.55;13.48;;;;;;;8.88;100.00;98267.72;5014216;28;20492;-80
2023/01/23 11:15:52;;;;;;;23.13;13.18;;;;;;;9.04;100.00;98270.59;5014165;28;20032;-80
2023/01/23 11:18:30;;;;;;;26.00;14.93;;;;;;;9.32;100.00;98286.25;5014184;28;20017;-81
2023/01/23 11:20:56;;;;;;;26.73;14.00;;;;;;;9.33;100.00;98270.16;5014055;28;20448;-81
2023/01/23 11:23:21;;;;;;;28.65;15.35;;;;;;;9.26;100.00;98277.56;5013418;28;20070;-80
2023/01/23 11:25:49;;;;;;;22.92;13.98;;;;;;;9.26;100.00;98271.34;4997264;28;20048;-81
2023/01/23 11:28:26;;;;;;;28.67;15.82;;;;;;;9.17;100.00;98267.28;4997320;28;20029;-79
2023/01/23 11:31:13;;;;;;;35.28;18.83;;;;;;;9.17;100.00;98283.31;4998009;28;20033;-80
2023/01/23 11:33:46;;;;;;;35.17;17.48;;;;;;;9.21;100.00;98292.06;4996878;28;20053;-80
2023/01/23 11:36:18;;;;;;;33.35;17.98;;;;;;;8.89;100.00;98288.13;5031510;28;20025;-80